createdAt,value
2018-02-24T00:00:51.896Z,1.90
2018-02-24T00:01:54.403Z,1.90
2018-02-24T00:02:56.905Z,1.90
2018-02-24T00:03:59.466Z,1.90
2018-02-24T00:05:02.739Z,1.90
2018-02-24T00:06:06.031Z,1.90
2018-02-24T00:07:09.293Z,1.90
2018-02-24T00:08:11.798Z,1.90
2018-02-24T00:09:14.295Z,1.90
2018-02-24T00:10:16.797Z,1.90
2018-02-24T00:11:19.314Z,1.90
2018-02-24T00:12:21.854Z,1.90
2018-02-24T00:13:24.356Z,1.80
2018-02-24T00:14:26.859Z,1.80
2018-02-24T00:15:30.134Z,1.80
2018-02-24T00:16:32.695Z,1.70
2018-02-24T00:17:35.194Z,1.70
2018-02-24T00:18:37.698Z,1.70
2018-02-24T00:19:40.198Z,1.70
2018-02-24T00:20:42.737Z,1.70
2018-02-24T00:21:45.242Z,1.70
2018-02-24T00:22:48.514Z,1.70
2018-02-24T00:23:51.780Z,1.80
2018-02-24T00:24:55.782Z,1.80
2018-02-24T00:25:58.282Z,1.70
2018-02-24T00:27:00.804Z,1.70
2018-02-24T00:28:03.297Z,1.70
2018-02-24T00:29:06.578Z,1.70
2018-02-24T00:30:09.843Z,1.70
2018-02-24T00:31:12.337Z,1.70
2018-02-24T00:32:15.630Z,1.70
2018-02-24T00:33:18.134Z,1.60
2018-02-24T00:34:20.629Z,1.70
2018-02-24T00:35:23.134Z,1.70
2018-02-24T00:36:25.641Z,1.70
2018-02-24T00:37:28.258Z,1.70
2018-02-24T00:38:31.651Z,1.70
2018-02-24T00:39:34.153Z,1.60
2018-02-24T00:40:36.652Z,1.60
2018-02-24T00:41:39.148Z,1.60
2018-02-24T00:42:41.671Z,1.60
2018-02-24T00:43:44.181Z,1.60
2018-02-24T00:44:46.682Z,1.60
2018-02-24T00:45:49.178Z,1.60
2018-02-24T00:46:51.671Z,1.60
2018-02-24T00:47:54.185Z,1.60
2018-02-24T00:48:56.686Z,1.60
2018-02-24T00:49:59.958Z,1.60
2018-02-24T00:51:03.218Z,1.60
2018-02-24T00:52:05.715Z,1.60
2018-02-24T00:53:09.007Z,1.60
2018-02-24T00:54:11.512Z,1.60
2018-02-24T00:55:14.026Z,1.60
2018-02-24T00:56:17.298Z,1.60
2018-02-24T00:57:19.803Z,1.60
2018-02-24T00:58:22.323Z,1.60
2018-02-24T00:59:24.830Z,1.60
2018-02-24T01:00:27.341Z,1.60
2018-02-24T01:01:29.850Z,1.60
2018-02-24T01:02:32.343Z,1.60
2018-02-24T01:03:34.907Z,1.50
2018-02-24T01:04:37.406Z,1.50
2018-02-24T01:05:39.919Z,1.50
2018-02-24T01:06:42.419Z,1.50
2018-02-24T01:07:44.922Z,1.50
2018-02-24T01:08:48.214Z,1.50
2018-02-24T01:09:51.482Z,1.50
2018-02-24T01:10:53.994Z,1.40
2018-02-24T01:11:56.720Z,1.40
2018-02-24T01:12:59.262Z,1.40
2018-02-24T01:14:01.878Z,1.40
2018-02-24T01:15:04.370Z,1.40
2018-02-24T01:16:06.865Z,1.40
2018-02-24T01:17:09.358Z,1.30
2018-02-24T01:18:12.626Z,1.30
2018-02-24T01:19:15.242Z,1.20
2018-02-24T01:20:17.739Z,1.30
2018-02-24T01:21:20.246Z,1.30
2018-02-24T01:22:23.738Z,1.30
2018-02-24T01:23:26.240Z,1.20
2018-02-24T01:24:28.761Z,1.30
2018-02-24T01:25:32.058Z,1.30
2018-02-24T01:26:34.561Z,1.30
2018-02-24T01:27:37.074Z,1.30
2018-02-24T01:28:39.607Z,1.30
2018-02-24T01:29:42.119Z,1.30
2018-02-24T01:30:44.616Z,1.40
2018-02-24T01:31:47.120Z,1.40
2018-02-24T01:32:49.619Z,1.40
2018-02-24T01:33:52.134Z,1.40
2018-02-24T01:34:54.659Z,1.40
2018-02-24T01:35:57.150Z,1.40
2018-02-24T01:36:59.662Z,1.40
2018-02-24T01:38:02.922Z,1.40
2018-02-24T01:39:05.438Z,1.30
2018-02-24T01:40:07.970Z,1.40
2018-02-24T01:41:11.234Z,1.40
2018-02-24T01:42:13.836Z,1.40
2018-02-24T01:43:16.340Z,1.40
2018-02-24T01:44:18.843Z,1.40
2018-02-24T01:45:21.357Z,1.40
2018-02-24T01:46:23.851Z,1.30
2018-02-24T01:47:26.342Z,1.40
2018-02-24T01:48:28.834Z,1.30
2018-02-24T01:49:31.326Z,1.30
2018-02-24T01:50:42.749Z,1.30
2018-02-24T01:51:46.016Z,1.30
2018-02-24T01:52:48.510Z,1.30
2018-02-24T01:53:51.765Z,1.30
2018-02-24T01:54:54.270Z,1.30
2018-02-24T01:55:56.789Z,1.30
2018-02-24T01:56:59.287Z,1.30
2018-02-24T01:58:02.566Z,1.30
2018-02-24T01:59:05.834Z,1.30
2018-02-24T02:00:08.346Z,1.30
2018-02-24T02:01:10.866Z,1.30
2018-02-24T02:02:13.378Z,1.30
2018-02-24T02:03:15.875Z,1.30
2018-02-24T02:04:18.370Z,1.30
2018-02-24T02:05:21.637Z,1.30
2018-02-24T02:06:24.155Z,1.30
2018-02-24T02:07:26.654Z,1.30
2018-02-24T02:08:29.162Z,1.30
2018-02-24T02:09:32.446Z,1.30
2018-02-24T02:10:35.710Z,1.30
2018-02-24T02:11:38.297Z,1.30
2018-02-24T02:12:40.806Z,1.30
2018-02-24T02:13:43.298Z,1.30
2018-02-24T02:14:45.794Z,1.30
2018-02-24T02:15:48.297Z,1.30
2018-02-24T02:16:50.814Z,1.30
2018-02-24T02:17:54.083Z,1.20
2018-02-24T02:18:56.578Z,1.20
2018-02-24T02:19:59.088Z,1.20
2018-02-24T02:21:01.593Z,1.20
2018-02-24T02:22:04.886Z,1.20
2018-02-24T02:23:07.385Z,1.20
2018-02-24T02:24:09.886Z,1.20
2018-02-24T02:25:12.406Z,1.20
2018-02-24T02:26:14.906Z,1.20
2018-02-24T02:27:17.437Z,1.20
2018-02-24T02:28:19.930Z,1.20
2018-02-24T02:29:22.430Z,1.20
2018-02-24T02:30:25.690Z,1.10
2018-02-24T02:31:28.191Z,1.10
2018-02-24T02:32:30.750Z,1.20
2018-02-24T02:33:34.015Z,1.10
2018-02-24T02:34:36.506Z,1.10
2018-02-24T02:35:39.005Z,1.10
2018-02-24T02:36:41.511Z,1.10
2018-02-24T02:37:44.038Z,1.10
2018-02-24T02:38:47.157Z,1.10
2018-02-24T02:39:52.013Z,1.10
2018-02-24T02:40:54.874Z,1.10
2018-02-24T02:41:57.958Z,1.10
2018-02-24T02:43:00.541Z,1.00
2018-02-24T02:44:03.049Z,1.10
2018-02-24T02:45:05.828Z,1.10
2018-02-24T02:46:09.973Z,1.10
2018-02-24T02:47:13.091Z,1.10
2018-02-24T02:48:15.625Z,1.10
2018-02-24T02:49:18.127Z,1.10
2018-02-24T02:50:20.626Z,1.10
2018-02-24T02:51:23.894Z,1.10
2018-02-24T02:52:26.482Z,1.10
2018-02-24T02:53:29.782Z,1.20
2018-02-24T02:54:32.282Z,1.10
2018-02-24T02:55:34.792Z,1.20
2018-02-24T02:56:38.062Z,1.20
2018-02-24T02:57:41.335Z,1.10
2018-02-24T02:58:43.878Z,1.10
2018-02-24T02:59:46.375Z,1.10
2018-02-24T03:00:49.688Z,1.10
2018-02-24T03:01:52.185Z,1.10
2018-02-24T03:02:54.686Z,1.10
2018-02-24T03:03:57.207Z,1.10
2018-02-24T03:04:59.706Z,1.00
2018-02-24T03:06:02.227Z,1.00
2018-02-24T03:07:04.730Z,1.00
2018-02-24T03:08:07.229Z,0.90
2018-02-24T03:09:10.516Z,0.90
2018-02-24T03:10:13.782Z,0.90
2018-02-24T03:11:17.051Z,0.90
2018-02-24T03:12:19.554Z,0.90
2018-02-24T03:13:22.054Z,0.90
2018-02-24T03:14:24.589Z,0.90
2018-02-24T03:15:27.098Z,0.90
2018-02-24T03:16:29.616Z,0.90
2018-02-24T03:17:32.140Z,0.90
2018-02-24T03:18:34.650Z,0.90
2018-02-24T03:19:37.169Z,0.90
2018-02-24T03:20:39.671Z,0.90
2018-02-24T03:21:42.927Z,0.90
2018-02-24T03:22:45.426Z,0.90
2018-02-24T03:23:47.934Z,0.90
2018-02-24T03:24:50.452Z,0.90
2018-02-24T03:25:52.950Z,0.90
2018-02-24T03:26:55.454Z,0.90
2018-02-24T03:27:58.047Z,0.90
2018-02-24T03:29:01.314Z,0.90
2018-02-24T03:30:04.619Z,1.00
2018-02-24T03:31:07.134Z,0.90
2018-02-24T03:32:09.643Z,1.00
2018-02-24T03:33:12.907Z,1.00
2018-02-24T03:34:16.167Z,0.90
2018-02-24T03:35:18.685Z,0.90
2018-02-24T03:36:21.182Z,1.00
2018-02-24T03:37:23.686Z,1.00
2018-02-24T03:38:26.191Z,1.00
2018-02-24T03:39:28.694Z,1.00
2018-02-24T03:40:31.215Z,1.00
2018-02-24T03:41:33.738Z,1.00
2018-02-24T03:42:36.281Z,1.00
2018-02-24T03:43:38.769Z,1.00
2018-02-24T03:44:41.278Z,1.00
2018-02-24T03:45:58.693Z,1.00
2018-02-24T03:47:01.190Z,1.00
2018-02-24T03:48:03.684Z,1.00
2018-02-24T03:49:06.178Z,1.00
2018-02-24T03:50:08.673Z,0.90
2018-02-24T03:51:11.202Z,0.90
2018-02-24T03:52:14.465Z,0.90
2018-02-24T03:53:17.727Z,0.90
2018-02-24T03:54:20.255Z,0.90
2018-02-24T03:55:22.752Z,0.90
2018-02-24T03:56:25.276Z,0.90
2018-02-24T03:57:27.799Z,1.00
2018-02-24T03:58:30.301Z,1.00
2018-02-24T03:59:32.812Z,1.00
2018-02-24T04:00:35.308Z,1.00
2018-02-24T04:01:37.834Z,1.00
2018-02-24T04:02:40.333Z,1.00
2018-02-24T04:03:42.846Z,1.00
2018-02-24T04:04:45.353Z,0.90
2018-02-24T04:05:47.854Z,0.90
2018-02-24T04:06:51.135Z,0.90
2018-02-24T04:07:54.407Z,0.80
2018-02-24T04:08:57.673Z,0.80
2018-02-24T04:10:00.197Z,0.80
2018-02-24T04:11:02.709Z,0.80
2018-02-24T04:12:05.264Z,0.80
2018-02-24T04:13:07.790Z,0.80
2018-02-24T04:14:10.304Z,0.80
2018-02-24T04:15:12.827Z,0.80
2018-02-24T04:16:15.360Z,0.70
2018-02-24T04:17:18.654Z,0.70
2018-02-24T04:18:21.150Z,0.70
2018-02-24T04:19:23.658Z,0.70
2018-02-24T04:20:26.182Z,0.70
2018-02-24T04:21:28.682Z,0.70
2018-02-24T04:22:31.221Z,0.70
2018-02-24T04:23:33.734Z,0.70
2018-02-24T04:24:37.007Z,0.80
2018-02-24T04:25:39.506Z,0.70
2018-02-24T04:26:42.008Z,0.80
2018-02-24T04:27:44.539Z,0.80
2018-02-24T04:28:47.039Z,0.80
2018-02-24T04:29:49.550Z,0.70
2018-02-24T04:30:52.069Z,0.70
2018-02-24T04:31:54.582Z,0.70
2018-02-24T04:32:57.131Z,0.70
2018-02-24T04:34:00.394Z,0.60
2018-02-24T04:35:03.463Z,0.60
2018-02-24T04:36:05.958Z,0.60
2018-02-24T04:37:09.250Z,0.60
2018-02-24T04:38:12.542Z,0.50
2018-02-24T04:39:15.039Z,0.50
2018-02-24T04:40:17.530Z,0.50
2018-02-24T04:41:20.057Z,0.50
2018-02-24T04:42:22.567Z,0.50
2018-02-24T04:43:25.166Z,0.50
2018-02-24T04:44:28.430Z,0.50
2018-02-24T04:45:30.930Z,0.50
2018-02-24T04:46:33.437Z,0.50
2018-02-24T04:47:35.938Z,0.50
2018-02-24T04:48:39.345Z,0.50
2018-02-24T04:49:41.856Z,0.50
2018-02-24T04:50:44.362Z,0.50
2018-02-24T04:51:47.628Z,0.50
2018-02-24T04:52:50.891Z,0.50
2018-02-24T04:53:53.408Z,0.50
2018-02-24T04:54:55.902Z,0.50
2018-02-24T04:55:58.402Z,0.50
2018-02-24T04:57:00.894Z,0.50
2018-02-24T04:58:03.394Z,0.50
2018-02-24T04:59:05.927Z,0.50
2018-02-24T05:00:08.428Z,0.50
2018-02-24T05:01:10.930Z,0.50
2018-02-24T05:02:13.514Z,0.50
2018-02-24T05:03:16.781Z,0.40
2018-02-24T05:04:20.066Z,0.40
2018-02-24T05:05:23.327Z,0.40
2018-02-24T05:06:25.817Z,0.40
2018-02-24T05:07:28.399Z,0.40
2018-02-24T05:08:30.960Z,0.40
2018-02-24T05:09:33.492Z,0.50
2018-02-24T05:10:35.994Z,0.50
2018-02-24T05:11:39.258Z,0.50
2018-02-24T05:12:41.774Z,0.40
2018-02-24T05:13:44.278Z,0.50
2018-02-24T05:14:46.790Z,0.50
2018-02-24T05:15:49.302Z,0.50
2018-02-24T05:16:51.802Z,0.50
2018-02-24T05:17:55.068Z,0.50
2018-02-24T05:18:57.570Z,0.50
2018-02-24T05:20:00.090Z,0.50
2018-02-24T05:21:02.595Z,0.50
2018-02-24T05:22:05.100Z,0.50
2018-02-24T05:23:07.607Z,0.50
2018-02-24T05:24:10.884Z,0.50
2018-02-24T05:25:14.330Z,0.50
2018-02-24T05:26:16.831Z,0.50
2018-02-24T05:27:20.110Z,0.50
2018-02-24T05:28:22.622Z,0.40
2018-02-24T05:29:25.146Z,0.50
2018-02-24T05:30:28.442Z,0.50
2018-02-24T05:31:31.713Z,0.50
2018-02-24T05:32:34.978Z,0.50
2018-02-24T05:33:37.500Z,0.50
2018-02-24T05:34:40.014Z,0.50
2018-02-24T05:35:42.539Z,0.50
2018-02-24T05:36:45.035Z,0.50
2018-02-24T05:37:47.571Z,0.50
2018-02-24T05:38:50.110Z,0.60
2018-02-24T05:39:54.395Z,0.50
2018-02-24T05:40:56.930Z,0.50
2018-02-24T05:41:59.445Z,0.50
2018-02-24T05:43:01.944Z,0.50
2018-02-24T05:44:04.454Z,0.50
2018-02-24T05:45:07.761Z,0.40
2018-02-24T05:46:11.066Z,0.40
2018-02-24T05:47:13.561Z,0.40
2018-02-24T05:48:16.063Z,0.40
2018-02-24T05:49:19.339Z,0.40
2018-02-24T05:50:22.601Z,0.40
2018-02-24T05:51:25.128Z,0.40
2018-02-24T05:52:27.663Z,0.40
2018-02-24T05:53:30.199Z,0.40
2018-02-24T05:54:32.705Z,0.40
2018-02-24T05:55:35.204Z,0.40
2018-02-24T05:56:37.747Z,0.40
2018-02-24T05:57:40.246Z,0.40
2018-02-24T05:58:42.744Z,0.40
2018-02-24T05:59:45.254Z,0.40
2018-02-24T06:00:47.780Z,0.40
2018-02-24T06:01:51.062Z,0.30
2018-02-24T06:02:54.345Z,0.30
2018-02-24T06:03:57.625Z,0.30
2018-02-24T06:05:00.911Z,0.30
2018-02-24T06:06:04.195Z,0.30
2018-02-24T06:07:07.493Z,0.30
2018-02-24T06:08:10.766Z,0.30
2018-02-24T06:09:14.043Z,0.20
2018-02-24T06:10:16.560Z,0.20
2018-02-24T06:11:19.067Z,0.20
2018-02-24T06:12:21.766Z,0.20
2018-02-24T06:13:24.286Z,0.20
2018-02-24T06:14:26.790Z,0.20
2018-02-24T06:15:30.066Z,0.20
2018-02-24T06:16:33.329Z,0.20
2018-02-24T06:17:35.859Z,0.20
2018-02-24T06:18:38.371Z,0.20
2018-02-24T06:19:40.864Z,0.10
2018-02-24T06:20:43.369Z,0.20
2018-02-24T06:21:45.862Z,0.10
2018-02-24T06:22:49.913Z,0.10
2018-02-24T06:23:52.410Z,0.10
2018-02-24T06:24:54.923Z,0.00
2018-02-24T06:25:57.425Z,0.10
2018-02-24T06:26:59.918Z,0.10
2018-02-24T06:28:02.450Z,0.10
2018-02-24T06:29:04.974Z,0.10
2018-02-24T06:30:08.248Z,0.10
2018-02-24T06:31:11.511Z,0.10
2018-02-24T06:32:14.006Z,0.10
2018-02-24T06:33:17.290Z,0.10
2018-02-24T06:34:20.550Z,0.00
2018-02-24T06:35:23.145Z,0.00
2018-02-24T06:36:25.765Z,0.10
2018-02-24T06:37:28.283Z,0.10
2018-02-24T06:38:30.860Z,0.10
2018-02-24T06:39:33.384Z,0.10
2018-02-24T06:40:35.897Z,0.10
2018-02-24T06:41:38.411Z,0.10
2018-02-24T06:42:40.914Z,0.10
2018-02-24T06:43:43.434Z,0.10
2018-02-24T06:44:45.942Z,0.10
2018-02-24T06:45:48.451Z,0.10
2018-02-24T06:46:50.990Z,0.10
2018-02-24T06:47:53.511Z,0.10
2018-02-24T06:48:56.816Z,0.10
2018-02-24T06:49:59.326Z,0.10
2018-02-24T06:51:01.852Z,0.10
2018-02-24T06:52:04.357Z,0.10
2018-02-24T06:53:06.853Z,0.10
2018-02-24T06:54:09.430Z,0.10
2018-02-24T06:55:12.698Z,0.10
2018-02-24T06:56:15.203Z,0.10
2018-02-24T06:57:17.749Z,0.10
2018-02-24T06:58:21.030Z,0.10
2018-02-24T06:59:24.328Z,0.10
2018-02-24T07:00:26.834Z,0.10
2018-02-24T07:01:29.351Z,0.10
2018-02-24T07:02:31.862Z,0.10
2018-02-24T07:03:34.360Z,0.10
2018-02-24T07:04:36.889Z,0.10
2018-02-24T07:05:39.391Z,0.10
2018-02-24T07:06:42.687Z,0.20
2018-02-24T07:07:45.953Z,0.20
2018-02-24T07:08:48.462Z,0.20
2018-02-24T07:09:51.004Z,0.30
2018-02-24T07:10:54.259Z,0.30
2018-02-24T07:11:56.759Z,0.30
2018-02-24T07:13:00.031Z,0.30
2018-02-24T07:14:03.304Z,0.30
2018-02-24T07:15:06.634Z,0.30
2018-02-24T07:16:09.138Z,0.30
2018-02-24T07:17:11.643Z,0.30
2018-02-24T07:18:14.930Z,0.40
2018-02-24T07:19:17.450Z,0.30
2018-02-24T07:20:19.982Z,0.40
2018-02-24T07:21:22.488Z,0.40
2018-02-24T07:22:25.000Z,0.40
2018-02-24T07:23:27.505Z,0.50
2018-02-24T07:24:30.006Z,0.50
2018-02-24T07:25:33.442Z,0.50
2018-02-24T07:26:35.937Z,0.50
2018-02-24T07:27:38.444Z,0.50
2018-02-24T07:28:40.949Z,0.60
2018-02-24T07:29:43.463Z,0.60
2018-02-24T07:30:46.751Z,0.60
2018-02-24T07:31:49.266Z,0.60
2018-02-24T07:32:51.774Z,0.60
2018-02-24T07:33:55.049Z,0.60
2018-02-24T07:34:58.348Z,0.50
2018-02-24T07:36:01.631Z,0.60
2018-02-24T07:37:04.144Z,0.60
2018-02-24T07:38:06.642Z,0.60
2018-02-24T07:39:09.151Z,0.50
2018-02-24T07:40:11.708Z,0.50
2018-02-24T07:41:14.225Z,0.50
2018-02-24T07:42:16.758Z,0.50
2018-02-24T07:43:19.258Z,0.50
2018-02-24T07:44:21.750Z,0.50
2018-02-24T07:45:25.023Z,0.50
2018-02-24T07:46:28.314Z,0.50
2018-02-24T07:47:31.578Z,0.40
2018-02-24T07:48:34.103Z,0.40
2018-02-24T07:49:36.608Z,0.40
2018-02-24T07:50:39.136Z,0.40
2018-02-24T07:51:41.681Z,0.40
2018-02-24T07:52:44.187Z,0.50
2018-02-24T07:53:46.679Z,0.50
2018-02-24T07:54:49.960Z,0.50
2018-02-24T07:55:53.242Z,0.40
2018-02-24T07:56:56.548Z,0.40
2018-02-24T07:57:59.066Z,0.40
2018-02-24T07:59:01.561Z,0.40
2018-02-24T08:00:04.880Z,0.40
2018-02-24T08:01:07.378Z,0.40
2018-02-24T08:02:09.904Z,0.50
2018-02-24T08:03:12.410Z,0.50
2018-02-24T08:04:14.907Z,0.50
2018-02-24T08:05:18.187Z,0.50
2018-02-24T08:06:20.683Z,0.50
2018-02-24T08:07:23.202Z,0.50
2018-02-24T08:08:25.695Z,0.50
2018-02-24T08:09:28.962Z,0.60
2018-02-24T08:10:31.471Z,0.60
2018-02-24T08:11:33.983Z,0.60
2018-02-24T08:12:36.586Z,0.60
2018-02-24T08:13:39.090Z,0.60
2018-02-24T08:14:41.601Z,0.60
2018-02-24T08:15:44.878Z,0.70
2018-02-24T08:16:48.138Z,0.70
2018-02-24T08:17:50.765Z,0.70
2018-02-24T08:18:53.266Z,0.80
2018-02-24T08:19:55.771Z,0.80
2018-02-24T08:20:59.043Z,1.00
2018-02-24T08:22:02.322Z,1.00
2018-02-24T08:23:05.606Z,1.10
2018-02-24T08:24:08.124Z,1.10
2018-02-24T08:25:10.618Z,1.10
2018-02-24T08:26:13.127Z,1.10
2018-02-24T08:27:15.627Z,1.20
2018-02-24T08:28:18.155Z,1.20
2018-02-24T08:29:20.723Z,1.20
2018-02-24T08:30:23.230Z,1.30
2018-02-24T08:31:25.783Z,1.30
2018-02-24T08:32:29.378Z,1.40
2018-02-24T08:33:31.919Z,1.40
2018-02-24T08:34:34.448Z,1.40
2018-02-24T08:35:37.726Z,1.50
2018-02-24T08:36:40.235Z,1.50
2018-02-24T08:37:42.906Z,1.50
2018-02-24T08:38:45.466Z,1.50
2018-02-24T08:39:47.977Z,1.60
2018-02-24T08:40:50.502Z,1.60
2018-02-24T08:41:53.010Z,1.60
2018-02-24T08:42:55.555Z,1.60
2018-02-24T08:43:58.086Z,1.60
2018-02-24T08:45:01.366Z,1.70
2018-02-24T08:46:04.642Z,1.70
2018-02-24T08:47:07.936Z,1.70
2018-02-24T08:48:11.203Z,1.70
2018-02-24T08:49:14.494Z,1.70
2018-02-24T08:50:17.788Z,1.80
2018-02-24T08:51:20.365Z,1.80
2018-02-24T08:52:22.866Z,1.80
2018-02-24T08:53:27.161Z,1.80
2018-02-24T08:54:29.682Z,1.80
2018-02-24T08:55:32.965Z,1.90
2018-02-24T08:56:36.246Z,1.90
2018-02-24T08:57:39.549Z,1.90
2018-02-24T08:58:42.060Z,1.90
2018-02-24T08:59:44.584Z,1.90
2018-02-24T09:00:47.099Z,2.00
2018-02-24T09:01:49.616Z,2.00
2018-02-24T09:02:52.128Z,2.00
2018-02-24T09:03:54.629Z,2.00
2018-02-24T09:04:57.929Z,2.10
2018-02-24T09:06:00.483Z,2.10
2018-02-24T09:07:03.031Z,2.10
2018-02-24T09:08:05.543Z,2.10
2018-02-24T09:09:08.038Z,2.10
2018-02-24T09:10:10.564Z,2.10
2018-02-24T09:11:13.069Z,2.20
2018-02-24T09:12:16.748Z,2.20
2018-02-24T09:13:19.256Z,2.20
2018-02-24T09:14:21.782Z,2.20
2018-02-24T09:15:24.336Z,2.30
2018-02-24T09:16:26.912Z,2.30
2018-02-24T09:17:29.432Z,2.30
2018-02-24T09:18:31.938Z,2.30
2018-02-24T09:19:34.791Z,2.30
2018-02-24T09:20:37.406Z,2.40
2018-02-24T09:21:39.925Z,2.40
2018-02-24T09:22:42.426Z,2.40
2018-02-24T09:23:45.950Z,2.40
2018-02-24T09:24:49.234Z,2.50
2018-02-24T09:25:52.569Z,2.50
2018-02-24T09:26:55.085Z,2.50
2018-02-24T09:27:58.350Z,2.60
2018-02-24T09:29:00.888Z,2.60
2018-02-24T09:30:03.408Z,2.60
2018-02-24T09:31:05.951Z,2.60
2018-02-24T09:32:08.485Z,2.60
2018-02-24T09:33:10.987Z,2.60
2018-02-24T09:34:14.278Z,2.60
2018-02-24T09:35:17.596Z,2.70
2018-02-24T09:36:20.122Z,2.70
2018-02-24T09:37:23.409Z,2.60
2018-02-24T09:38:26.687Z,2.70
2018-02-24T09:39:29.231Z,2.70
2018-02-24T09:40:31.753Z,2.70
2018-02-24T09:41:34.290Z,2.70
2018-02-24T09:42:37.548Z,2.80
2018-02-24T09:43:40.055Z,2.80
2018-02-24T09:44:42.554Z,2.80
2018-02-24T09:45:45.142Z,2.80
2018-02-24T09:46:47.693Z,2.80
2018-02-24T09:47:50.197Z,2.80
2018-02-24T09:48:53.466Z,2.80
2018-02-24T09:49:55.965Z,2.80
2018-02-24T09:50:58.464Z,2.80
2018-02-24T09:52:01.054Z,2.90
2018-02-24T09:53:03.571Z,2.90
2018-02-24T09:54:06.836Z,2.90
2018-02-24T09:55:10.103Z,3.00
2018-02-24T09:56:12.624Z,2.90
2018-02-24T09:57:15.189Z,3.00
2018-02-24T09:58:17.690Z,3.00
2018-02-24T09:59:20.201Z,3.00
2018-02-24T10:00:22.730Z,3.10
2018-02-24T10:01:26.971Z,3.10
2018-02-24T10:02:29.640Z,3.10
2018-02-24T10:03:32.186Z,3.10
2018-02-24T10:04:35.464Z,3.10
2018-02-24T10:05:38.754Z,3.20
2018-02-24T10:06:42.043Z,3.20
2018-02-24T10:07:45.372Z,3.20
2018-02-24T10:08:47.907Z,3.20
2018-02-24T10:09:50.791Z,3.30
2018-02-24T10:10:53.321Z,3.20
2018-02-24T10:11:57.418Z,3.30
2018-02-24T10:13:00.146Z,3.20
2018-02-24T10:14:02.646Z,3.30
2018-02-24T10:15:05.209Z,3.30
2018-02-24T10:16:09.503Z,3.30
2018-02-24T10:17:15.742Z,3.30
2018-02-24T10:18:18.487Z,3.30
2018-02-24T10:19:20.999Z,3.30
2018-02-24T10:20:23.508Z,3.40
2018-02-24T10:21:26.033Z,3.40
2018-02-24T10:22:28.568Z,3.40
2018-02-24T10:23:31.107Z,3.50
2018-02-24T10:24:33.650Z,3.50
2018-02-24T10:25:36.985Z,3.50
2018-02-24T10:26:39.502Z,3.50
2018-02-24T10:27:42.789Z,3.60
2018-02-24T10:28:46.205Z,3.60
2018-02-24T10:29:48.788Z,3.60
2018-02-24T10:30:51.290Z,3.60
2018-02-24T10:31:53.819Z,3.60
2018-02-24T10:32:56.320Z,3.60
2018-02-24T10:33:58.911Z,3.70
2018-02-24T10:35:02.428Z,3.70
2018-02-24T10:36:04.928Z,3.70
2018-02-24T10:37:07.460Z,3.70
2018-02-24T10:38:09.980Z,3.70
2018-02-24T10:39:13.346Z,3.70
2018-02-24T10:40:15.861Z,3.70
2018-02-24T10:41:18.374Z,3.70
2018-02-24T10:42:20.870Z,3.70
2018-02-24T10:43:24.137Z,3.70
2018-02-24T10:44:26.671Z,3.70
2018-02-24T10:45:29.321Z,3.70
2018-02-24T10:46:31.856Z,3.80
2018-02-24T10:47:35.278Z,3.80
2018-02-24T10:48:37.780Z,3.80
2018-02-24T10:49:41.094Z,3.80
2018-02-24T10:50:44.685Z,3.90
2018-02-24T10:51:48.478Z,3.80
2018-02-24T10:52:51.763Z,3.80
2018-02-24T10:53:55.064Z,3.80
2018-02-24T10:54:57.594Z,3.80
2018-02-24T10:56:00.118Z,3.80
2018-02-24T10:57:02.636Z,3.80
2018-02-24T10:58:05.916Z,3.80
2018-02-24T10:59:09.204Z,3.90
2018-02-24T11:00:12.492Z,3.90
2018-02-24T11:01:15.768Z,3.90
2018-02-24T11:02:19.043Z,3.90
2018-02-24T11:03:22.326Z,3.90
2018-02-24T11:04:24.830Z,3.90
2018-02-24T11:05:27.387Z,4.00
2018-02-24T11:06:29.931Z,4.00
2018-02-24T11:07:33.199Z,4.00
2018-02-24T11:08:35.705Z,4.00
2018-02-24T11:09:38.206Z,4.00
2018-02-24T11:10:40.807Z,4.00
2018-02-24T11:11:43.359Z,4.00
2018-02-24T11:12:45.863Z,4.00
2018-02-24T11:13:48.371Z,4.00
2018-02-24T11:14:50.939Z,4.00
2018-02-24T11:15:53.617Z,4.00
2018-02-24T11:16:56.159Z,4.00
2018-02-24T11:17:58.672Z,4.00
2018-02-24T11:19:01.182Z,4.00
2018-02-24T11:20:03.682Z,4.00
2018-02-24T11:21:06.218Z,4.00
2018-02-24T11:22:08.715Z,4.00
2018-02-24T11:23:11.214Z,4.00
2018-02-24T11:24:15.492Z,4.10
2018-02-24T11:25:18.008Z,4.00
2018-02-24T11:26:20.530Z,4.10
2018-02-24T11:27:23.041Z,4.10
2018-02-24T11:28:25.539Z,4.10
2018-02-24T11:29:28.046Z,4.10
2018-02-24T11:30:38.629Z,4.20
2018-02-24T11:31:46.646Z,4.20
2018-02-24T11:32:49.526Z,4.20
2018-02-24T11:33:52.027Z,4.20
2018-02-24T11:34:55.377Z,4.20
2018-02-24T11:35:58.090Z,4.20
2018-02-24T11:37:01.404Z,4.30
2018-02-24T11:38:05.340Z,4.30
2018-02-24T11:39:07.962Z,4.30
2018-02-24T11:40:10.476Z,4.30
2018-02-24T11:41:13.050Z,4.40
2018-02-24T11:42:15.570Z,4.40
2018-02-24T11:43:18.071Z,4.40
2018-02-24T11:44:20.688Z,4.40
2018-02-24T11:45:23.196Z,4.50
2018-02-24T11:46:26.503Z,4.40
2018-02-24T11:47:29.047Z,4.50
2018-02-24T11:48:31.546Z,4.50
2018-02-24T11:49:34.826Z,4.50
2018-02-24T11:50:38.116Z,4.50
2018-02-24T11:51:41.389Z,4.50
2018-02-24T11:52:44.686Z,4.50
2018-02-24T11:53:47.966Z,4.60
2018-02-24T11:54:51.260Z,4.60
2018-02-24T11:55:53.766Z,4.60
2018-02-24T11:56:56.272Z,4.60
2018-02-24T11:57:59.558Z,4.60
2018-02-24T11:59:02.826Z,4.70
2018-02-24T12:00:06.131Z,4.60
2018-02-24T12:01:09.415Z,4.60
2018-02-24T12:02:12.695Z,4.60
2018-02-24T12:03:16.055Z,4.70
2018-02-24T12:04:18.596Z,4.70
2018-02-24T12:05:21.112Z,4.70
2018-02-24T12:06:24.373Z,4.70
2018-02-24T12:07:26.914Z,4.70
2018-02-24T12:08:29.438Z,4.70
2018-02-24T12:09:31.951Z,4.80
2018-02-24T12:10:34.453Z,4.70
2018-02-24T12:11:37.774Z,4.70
2018-02-24T12:12:40.290Z,4.80
2018-02-24T12:13:42.891Z,4.70
2018-02-24T12:14:45.411Z,4.70
2018-02-24T12:15:47.915Z,4.70
2018-02-24T12:16:50.420Z,4.70
2018-02-24T12:17:52.935Z,4.80
2018-02-24T12:18:56.225Z,4.80
2018-02-24T12:19:59.487Z,4.80
2018-02-24T12:21:02.004Z,4.80
2018-02-24T12:22:04.557Z,4.80
2018-02-24T12:23:07.056Z,4.80
2018-02-24T12:24:09.575Z,4.80
2018-02-24T12:25:12.097Z,4.80
2018-02-24T12:26:14.657Z,4.80
2018-02-24T12:27:17.146Z,4.90
2018-02-24T12:28:19.648Z,4.90
2018-02-24T12:29:22.215Z,4.90
2018-02-24T12:30:24.746Z,4.90
2018-02-24T12:31:28.852Z,5.00
2018-02-24T12:32:31.351Z,5.00
2018-02-24T12:33:33.866Z,5.00
2018-02-24T12:34:36.438Z,5.00
2018-02-24T12:35:38.943Z,5.00
2018-02-24T12:36:41.441Z,5.00
2018-02-24T12:37:43.963Z,5.00
2018-02-24T12:38:46.490Z,5.00
2018-02-24T12:39:49.022Z,5.00
2018-02-24T12:40:51.550Z,5.10
2018-02-24T12:41:54.814Z,5.10
2018-02-24T12:42:57.316Z,5.10
2018-02-24T12:43:59.824Z,5.20
2018-02-24T12:45:02.377Z,5.10
2018-02-24T12:46:04.910Z,5.20
2018-02-24T12:47:07.423Z,5.20
2018-02-24T12:48:09.939Z,5.20
2018-02-24T12:49:12.446Z,5.20
2018-02-24T12:50:15.027Z,5.20
2018-02-24T12:51:17.612Z,5.20
2018-02-24T12:52:20.879Z,5.20
2018-02-24T12:53:23.404Z,5.20
2018-02-24T12:54:25.909Z,5.20
2018-02-24T12:55:28.486Z,5.20
2018-02-24T12:56:30.979Z,5.20
2018-02-24T12:57:34.262Z,5.30
2018-02-24T12:58:37.526Z,5.30
2018-02-24T12:59:40.798Z,5.30
2018-02-24T13:00:43.343Z,5.30
2018-02-24T13:01:45.839Z,5.30
2018-02-24T13:02:49.114Z,5.30
2018-02-24T13:03:51.609Z,5.30
2018-02-24T13:04:54.863Z,5.30
2018-02-24T13:05:57.402Z,5.30
2018-02-24T13:06:59.896Z,5.30
2018-02-24T13:08:03.185Z,5.40
2018-02-24T13:09:05.703Z,5.30
2018-02-24T13:10:08.212Z,5.40
2018-02-24T13:11:10.778Z,5.40
2018-02-24T13:12:13.310Z,5.40
2018-02-24T13:13:15.811Z,5.40
2018-02-24T13:14:18.341Z,5.50
2018-02-24T13:15:20.897Z,5.50
2018-02-24T13:16:23.422Z,5.50
2018-02-24T13:17:25.940Z,5.50
2018-02-24T13:18:28.451Z,5.60
2018-02-24T13:19:31.714Z,5.60
2018-02-24T13:20:34.214Z,5.60
2018-02-24T13:21:36.727Z,5.60
2018-02-24T13:22:39.231Z,5.60
2018-02-24T13:23:42.502Z,5.50
2018-02-24T13:24:45.115Z,5.50
2018-02-24T13:25:47.614Z,5.50
2018-02-24T13:26:50.127Z,5.50
2018-02-24T13:27:52.622Z,5.50
2018-02-24T13:28:56.253Z,5.50
2018-02-24T13:29:58.795Z,5.50
2018-02-24T13:31:01.320Z,5.50
2018-02-24T13:32:03.855Z,5.50
2018-02-24T13:33:06.363Z,5.50
2018-02-24T13:34:08.976Z,5.50
2018-02-24T13:35:11.506Z,5.50
2018-02-24T13:36:14.022Z,5.50
2018-02-24T13:37:16.572Z,5.50
2018-02-24T13:38:19.963Z,5.60
2018-02-24T13:39:22.471Z,5.60
2018-02-24T13:40:24.984Z,5.60
2018-02-24T13:41:27.532Z,5.60
2018-02-24T13:42:30.072Z,5.60
2018-02-24T13:43:32.589Z,5.60
2018-02-24T13:44:35.102Z,5.60
2018-02-24T13:45:37.598Z,5.60
2018-02-24T13:46:40.106Z,5.70
2018-02-24T13:47:43.387Z,5.70
2018-02-24T13:48:46.696Z,5.70
2018-02-24T13:49:49.200Z,5.70
2018-02-24T13:50:51.689Z,5.70
2018-02-24T13:51:54.192Z,5.80
2018-02-24T13:52:56.724Z,5.80
2018-02-24T13:54:00.000Z,5.90
2018-02-24T13:55:02.515Z,5.90
2018-02-24T13:56:05.010Z,5.90